Medford, Maine
Current Conditions -  °F | °C
As of 6:53 AM on Thursday 23 Oct 2014 (Local Time) from KMLT Reporting Station
Light Rain Light Rain  
Wind Chill: 40°   Ceiling: 800
Heat Index: 45°   Visibility: 2.5mi
Dew Point: 42°   Wind: 10mph
Humidity: 90%   Direction: 40°NE
Pressure: 30.08"   Gusts: 21mph
Location:  45.4158°N, 68.8178°W
Report Text: KMLT 231053Z AUTO 04009G18KT 2 1/2SM -RA BR OVC008 07/06 A3008 RMK AO2 RAE0956B28 SLP194 P0002 T00720056
Loading
Personal Weather Stations






























Interactive Weather Map
Tropical Storm Tracking
New forecast layout! Learn more

10-Day Weather Forecast

Advertisements
Track Severe Weather on mobile